Time;durP1;ratioP1;P1;durP2;ratioP2;P2;SDS_P1;SDS_P2;PMS_P1;PMS_P2;Temp;Humidity;BMP_temperature;BMP_pressure;BME280_temperature;BME280_humidity;BME280_pressure;Samples;Min_cycle;Max_cycle;Signal;HPM_P1;HPM_P2
2023/04/01 00:00:25;;;;;;;32.63;14.20;;;11.30;99.90;;;;;;4918851;29;20020;-94
2023/04/01 00:02:53;;;;;;;33.00;14.20;;;11.00;99.90;;;;;;4918338;29;20427;-93
2023/04/01 00:05:26;;;;;;;39.25;15.43;;;10.40;99.90;;;;;;4918498;29;20028;-95
2023/04/01 00:07:57;;;;;;;34.97;13.95;;;10.40;99.90;;;;;;4918536;29;20028;-94
2023/04/01 00:10:25;;;;;;;41.60;16.20;;;11.20;99.90;;;;;;4918332;29;20028;-93
2023/04/01 00:12:57;;;;;;;41.90;16.15;;;11.30;99.90;;;;;;4937914;23;20121;-95
2023/04/01 00:15:25;;;;;;;43.50;16.60;;;10.40;99.90;;;;;;4942075;29;20035;-95
2023/04/01 00:17:54;;;;;;;39.80;16.38;;;11.60;99.90;;;;;;4951161;28;20036;-95
2023/04/01 00:20:35;;;;;;;41.25;15.73;;;11.10;99.90;;;;;;4960089;28;20026;-95
2023/04/01 00:24:09;;;;;;;32.15;13.30;;;11.60;99.90;;;;;;4952738;29;20055;-94
2023/04/01 00:29:56;;;;;;;34.30;12.82;;;9.60;99.90;;;;;;5187123;23;20472;-93
2023/04/01 00:33:30;;;;;;;37.65;15.85;;;10.60;99.90;;;;;;4937122;29;20055;-94
2023/04/01 00:36:09;;;;;;;49.95;14.52;;;10.80;99.90;;;;;;4937312;29;20019;-96
2023/04/01 00:38:36;;;;;;;31.88;15.18;;;10.20;99.90;;;;;;4937050;29;20043;-94
2023/04/01 00:41:07;;;;;;;34.25;14.25;;;11.00;99.90;;;;;;4937086;29;20538;-94
2023/04/01 00:43:33;;;;;;;43.47;16.23;;;11.00;99.90;;;;;;4936844;29;20171;-94
2023/04/01 00:45:59;;;;;;;42.03;17.90;;;10.90;99.90;;;;;;4936827;29;20413;-93
2023/04/01 00:48:30;;;;;;;35.35;16.52;;;10.00;99.90;;;;;;4937219;29;20035;-96
2023/04/01 00:51:04;;;;;;;37.60;18.58;;;10.70;99.90;;;;;;4937047;29;20028;-94
2023/04/01 00:53:43;;;;;;;44.63;18.02;;;10.90;99.90;;;;;;4937017;29;20071;-94
2023/04/01 00:56:22;;;;;;;35.08;17.48;;;11.00;99.90;;;;;;4937268;29;20056;-93
2023/04/01 00:58:54;;;;;;;41.25;17.48;;;10.00;99.90;;;;;;4940014;29;20023;-92
2023/04/01 01:01:22;;;;;;;40.67;17.52;;;10.90;99.90;;;;;;4940550;29;20036;-94
2023/04/01 01:03:48;;;;;;;31.92;14.52;;;10.10;99.90;;;;;;4940082;29;20032;-93
2023/04/01 01:06:57;;;;;;;42.35;15.45;;;11.00;99.90;;;;;;4940136;29;20095;-93
2023/04/01 01:09:48;;;;;;;38.15;14.98;;;10.10;99.90;;;;;;4940217;29;20039;-93
2023/04/01 01:12:53;;;;;;;42.60;15.43;;;10.00;99.90;;;;;;4940400;29;20065;-95
2023/04/01 01:15:52;;;;;;;42.85;15.15;;;10.10;99.90;;;;;;4940178;29;20023;-96
2023/04/01 01:18:46;;;;;;;38.63;14.68;;;9.50;99.90;;;;;;4940126;29;20032;-95
2023/04/01 01:21:46;;;;;;;34.25;13.88;;;10.10;99.90;;;;;;4940537;29;20060;-94
2023/04/01 01:24:36;;;;;;;38.92;13.95;;;10.00;99.90;;;;;;4946444;23;20059;-95
2023/04/01 01:27:09;;;;;;;35.50;13.87;;;10.10;99.90;;;;;;4940099;29;20388;-95
2023/04/01 01:29:53;;;;;;;27.42;10.50;;;10.50;99.90;;;;;;4939530;29;20262;-93
2023/04/01 01:33:01;;;;;;;26.80;8.07;;;11.00;99.90;;;;;;4939856;29;20472;-93
2023/04/01 01:35:52;;;;;;;17.35;7.90;;;10.00;99.90;;;;;;4940378;29;20024;-94
2023/04/01 01:38:35;;;;;;;22.50;7.50;;;10.10;99.90;;;;;;4940442;29;20412;-94
2023/04/01 01:41:08;;;;;;;17.58;8.75;;;9.60;99.90;;;;;;4940956;29;20031;-94
2023/04/01 01:43:44;;;;;;;22.27;8.98;;;10.50;99.90;;;;;;4939541;29;20118;-95
2023/04/01 01:46:14;;;;;;;15.95;8.10;;;11.10;99.90;;;;;;4940321;29;20032;-94
2023/04/01 01:48:50;;;;;;;16.58;8.73;;;9.90;99.90;;;;;;4941027;29;20019;-93
2023/04/01 01:51:20;;;;;;;23.42;9.23;;;9.80;99.90;;;;;;4940147;29;20035;-95
2023/04/01 01:53:54;;;;;;;19.48;8.15;;;10.50;99.90;;;;;;4938820;29;20499;-95
2023/04/01 01:56:26;;;;;;;20.08;9.25;;;10.70;99.90;;;;;;4940177;29;20079;-95
2023/04/01 01:59:00;;;;;;;18.17;8.27;;;9.80;99.90;;;;;;4940021;29;20028;-93
2023/04/01 02:01:29;;;;;;;20.58;8.13;;;10.60;99.90;;;;;;4939575;29;20040;-95
2023/04/01 02:04:08;;;;;;;17.13;7.72;;;10.40;99.90;;;;;;4939841;29;20032;-94
2023/04/01 02:06:48;;;;;;;;;;;;;;;;;;;;;
2023/04/01 02:09:23;;;;;;;13.82;6.68;;;10.70;99.90;;;;;;4954907;28;20040;-94
2023/04/01 02:11:57;;;;;;;10.73;6.00;;;10.70;99.90;;;;;;4955138;28;20094;-94
2023/04/01 02:14:41;;;;;;;15.30;6.63;;;9.70;99.90;;;;;;4938905;29;20028;-96
2023/04/01 02:17:10;;;;;;;12.23;5.97;;;10.50;99.90;;;;;;4938966;29;20024;-94
2023/04/01 02:19:58;;;;;;;10.48;7.03;;;10.40;99.90;;;;;;4938640;29;20500;-95
2023/04/01 02:22:29;;;;;;;12.68;7.40;;;10.60;99.90;;;;;;4936178;29;20591;-95
2023/04/01 02:25:17;;;;;;;15.10;6.57;;;9.80;99.90;;;;;;4938409;29;20046;-93
2023/04/01 02:27:44;;;;;;;13.32;6.15;;;10.50;99.90;;;;;;4938610;29;20031;-93
2023/04/01 02:30:25;;;;;;;;;;;;;;;;;;;;;
2023/04/01 02:32:56;;;;;;;15.00;6.32;;;9.70;99.90;;;;;;4902502;29;20038;-94
2023/04/01 02:35:25;;;;;;;13.02;6.15;;;10.50;99.90;;;;;;4938274;29;20023;-95
2023/04/01 02:37:53;;;;;;;13.13;6.47;;;10.60;99.90;;;;;;4938519;29;20107;-95
2023/04/01 02:43:43;;;;;;;13.90;6.00;;;10.00;99.90;;;;;;4924151;29;20036;-94
2023/04/01 02:46:09;;;;;;;11.30;5.38;;;9.00;99.90;;;;;;4938501;29;20024;-94
2023/04/01 02:48:34;;;;;;;12.27;6.03;;;10.90;99.90;;;;;;4938330;29;20479;-95
2023/04/01 02:51:03;;;;;;;15.50;6.32;;;10.50;99.90;;;;;;4938182;29;20483;-89
2023/04/01 02:53:29;;;;;;;14.05;6.40;;;10.60;99.90;;;;;;4936596;29;20051;-88
2023/04/01 02:56:38;;;;;;;15.63;7.28;;;9.80;99.90;;;;;;4937682;29;20380;-94
2023/04/01 02:59:25;;;;;;;9.38;6.18;;;9.70;99.90;;;;;;4877529;29;20373;-92
2023/04/01 03:01:58;;;;;;;9.98;6.47;;;9.70;99.90;;;;;;4937995;29;20046;-95
2023/04/01 03:04:24;;;;;;;10.70;6.07;;;9.10;99.90;;;;;;4938082;29;20471;-92
2023/04/01 03:06:52;;;;;;;12.43;6.95;;;10.60;99.90;;;;;;4937184;29;20075;-93
2023/04/01 03:09:17;;;;;;;10.60;6.32;;;10.50;99.90;;;;;;4938000;29;20031;-94
2023/04/01 03:12:10;;;;;;;11.68;6.97;;;10.50;99.90;;;;;;4937598;29;20023;-92
2023/04/01 03:14:38;;;;;;;14.43;7.22;;;9.70;99.90;;;;;;4937349;29;20051;-93
2023/04/01 03:17:07;;;;;;;11.57;6.82;;;10.30;99.90;;;;;;4937366;29;20020;-93
2023/04/01 03:19:43;;;;;;;13.63;7.57;;;9.40;99.90;;;;;;4937315;29;20028;-93
2023/04/01 03:22:35;;;;;;;12.18;8.82;;;10.40;99.90;;;;;;4937650;29;20047;-94
2023/04/01 03:27:53;;;;;;;20.48;11.32;;;9.70;99.90;;;;;;4918063;29;20047;-93
2023/04/01 03:30:27;;;;;;;18.15;11.43;;;10.40;99.90;;;;;;4918514;29;20115;-94
2023/04/01 03:33:00;;;;;;;23.70;13.13;;;10.30;99.90;;;;;;4918455;29;20087;-91
2023/04/01 03:35:26;;;;;;;31.17;14.50;;;9.70;99.90;;;;;;4918574;29;20059;-95
2023/04/01 03:37:52;;;;;;;23.90;14.32;;;10.30;99.90;;;;;;4918344;29;20107;-93
2023/04/01 03:40:20;;;;;;;28.05;15.35;;;9.80;99.90;;;;;;4918108;29;20028;-93
2023/04/01 03:42:59;;;;;;;;;;;;;;;;;;;;;
2023/04/01 03:45:40;;;;;;;;;;;;;;;;;;;;;
2023/04/01 03:48:23;;;;;;;28.25;16.55;;;10.60;99.90;;;;;;4915765;29;20484;-92
2023/04/01 03:53:50;;;;;;;29.63;15.23;;;10.50;99.90;;;;;;4918802;29;20022;-94
2023/04/01 03:56:18;;;;;;;33.17;16.75;;;11.30;99.90;;;;;;4927543;29;20016;-95
2023/04/01 04:10:08;;;;;;;;;;;;;;;;;;;;;
2023/04/01 04:13:17;;;;;;;21.52;13.50;;;10.00;99.90;;;;;;4909269;29;20040;-92
2023/04/01 04:16:36;;;;;;;21.05;12.23;;;10.50;99.90;;;;;;4934292;29;20035;-93
2023/04/01 04:22:39;;;;;;;19.98;12.95;;;10.60;99.90;;;;;;4863155;29;20580;-93
2023/04/01 04:26:04;;;;;;;;;;;;;;;;;;;;;
2023/04/01 04:29:29;;;;;;;;;;;;;;;;;;;;;
2023/04/01 04:35:17;;;;;;;21.13;14.13;;;10.90;99.90;;;;;;4863479;29;20041;-95
2023/04/01 04:37:53;;;;;;;24.10;13.40;;;11.40;99.90;;;;;;4863072;29;20026;-94
2023/04/01 04:41:10;;;;;;;23.02;13.52;;;10.70;99.90;;;;;;4870326;29;20045;-92
2023/04/01 04:44:04;;;;;;;21.67;12.38;;;10.10;99.90;;;;;;4795395;29;20046;-94
2023/04/01 04:50:26;;;;;;;;;;;;;;;;;;;;;
2023/04/01 05:06:51;;;;;;;24.85;12.98;;;10.00;99.90;;;;;;4862254;29;20076;-95
2023/04/01 05:09:45;;;;;;;22.15;12.70;;;10.10;99.90;;;;;;4863014;29;20033;-94
2023/04/01 05:16:54;;;;;;;23.48;12.15;;;10.10;99.90;;;;;;4778284;30;20106;-94
2023/04/01 05:23:12;;;;;;;27.67;13.10;;;10.10;99.90;;;;;;4789191;29;20142;-92
2023/04/01 05:25:50;;;;;;;33.10;15.50;;;10.00;99.90;;;;;;4806641;29;20056;-92
2023/04/01 05:29:03;;;;;;;26.48;14.13;;;10.00;99.90;;;;;;4844356;29;20444;-92
2023/04/01 05:31:34;;;;;;;26.90;14.70;;;10.10;99.90;;;;;;4857208;29;20567;-93
2023/04/01 05:34:09;;;;;;;29.17;15.32;;;10.60;99.90;;;;;;4919882;29;20064;-93
2023/04/01 05:36:36;;;;;;;38.90;15.80;;;10.00;99.90;;;;;;4920098;29;20031;-93
2023/04/01 05:39:23;;;;;;;35.55;15.82;;;10.30;99.90;;;;;;4920512;29;20032;-94
2023/04/01 05:41:50;;;;;;;37.45;16.42;;;9.40;99.90;;;;;;4920870;29;20040;-94
2023/04/01 05:44:36;;;;;;;31.10;14.63;;;10.10;99.90;;;;;;4921604;29;20024;-92
2023/04/01 05:47:14;;;;;;;32.25;14.57;;;9.80;99.90;;;;;;4927053;29;20028;-94
2023/04/01 05:52:37;;;;;;;27.98;13.20;;;11.40;99.90;;;;;;4977657;23;20508;-88
2023/04/01 05:55:03;;;;;;;25.92;13.90;;;9.90;99.90;;;;;;4939152;29;20032;-90
2023/04/01 05:57:29;;;;;;;25.77;12.75;;;9.70;99.90;;;;;;4943804;29;20027;-91
2023/04/01 05:59:54;;;;;;;22.90;12.43;;;9.70;99.90;;;;;;4944983;29;20023;-94
2023/04/01 06:02:20;;;;;;;25.80;13.30;;;10.40;99.90;;;;;;4943931;29;20048;-92
2023/04/01 06:04:45;;;;;;;25.13;12.10;;;9.60;99.90;;;;;;4939398;29;20047;-89
2023/04/01 06:07:16;;;;;;;28.98;13.75;;;9.60;99.90;;;;;;4939012;29;20027;-91
2023/04/01 06:09:42;;;;;;;;;;;9.60;99.90;;;;;;4941628;29;20472;-95
2023/04/01 06:12:07;;;;;;;30.95;14.57;;;9.60;99.90;;;;;;4938691;29;19914;-90
2023/04/01 06:14:58;;;;;;;39.05;16.58;;;9.70;99.90;;;;;;4939749;29;20024;-91
2023/04/01 06:17:38;;;;;;;37.28;15.95;;;9.80;99.90;;;;;;4938005;29;20036;-91
2023/04/01 06:20:15;;;;;;;35.75;16.23;;;9.90;99.90;;;;;;4944797;29;20023;-90
2023/04/01 06:23:04;;;;;;;30.10;13.93;;;9.90;99.90;;;;;;4935702;29;20067;-91
2023/04/01 06:25:47;;;;;;;33.78;13.38;;;10.00;99.90;;;;;;4935139;29;20031;-89
2023/04/01 06:28:15;;;;;;;27.75;12.93;;;10.00;99.90;;;;;;4933533;29;20067;-90
2023/04/01 06:30:53;;;;;;;31.77;12.80;;;10.00;99.90;;;;;;4935390;29;20035;-91
2023/04/01 06:33:53;;;;;;;24.08;12.68;;;10.10;99.90;;;;;;4938372;29;20028;-91
2023/04/01 06:36:52;;;;;;;24.60;12.00;;;10.10;99.90;;;;;;4919056;29;20024;-92
2023/04/01 06:39:59;;;;;;;28.00;11.75;;;10.10;99.90;;;;;;4919029;29;20511;-91
2023/04/01 06:42:30;;;;;;;28.63;13.27;;;10.10;99.90;;;;;;4917385;29;20044;-92
2023/04/01 06:45:14;;;;;;;26.73;14.90;;;10.10;99.90;;;;;;4938000;29;20043;-90
2023/04/01 06:48:03;;;;;;;27.27;14.40;;;10.10;99.90;;;;;;4936240;29;20162;-91
2023/04/01 06:50:43;;;;;;;29.05;15.98;;;10.10;99.90;;;;;;4926395;29;20075;-92
2023/04/01 06:53:27;;;;;;;36.45;16.63;;;10.20;99.90;;;;;;4937442;29;20071;-90
2023/04/01 06:55:59;;;;;;;45.78;19.10;;;10.20;99.90;;;;;;4937336;29;20028;-91
2023/04/01 06:58:31;;;;;;;42.80;19.67;;;10.20;99.90;;;;;;4939497;29;20035;-91
2023/04/01 07:00:59;;;;;;;46.80;21.88;;;10.20;99.90;;;;;;4937595;29;20031;-91
2023/04/01 07:03:39;;;;;;;47.42;21.83;;;10.40;99.90;;;;;;4937803;29;20035;-92
2023/04/01 07:06:23;;;;;;;56.70;23.17;;;10.20;99.90;;;;;;4936834;29;20364;-90
2023/04/01 07:08:50;;;;;;;51.53;22.90;;;10.20;99.90;;;;;;4937322;29;20039;-92
2023/04/01 07:11:26;;;;;;;52.45;21.90;;;10.20;99.90;;;;;;4937612;29;20023;-91
2023/04/01 07:13:58;;;;;;;48.88;22.63;;;10.20;99.90;;;;;;4937837;29;20043;-89
2023/04/01 07:16:34;;;;;;;49.63;22.50;;;10.20;99.90;;;;;;4937340;29;20074;-91
2023/04/01 07:19:31;;;;;;;44.60;20.27;;;10.10;99.90;;;;;;4937343;29;20027;-91
2023/04/01 07:22:15;;;;;;;43.50;19.58;;;10.00;99.90;;;;;;4937126;29;20522;-90
2023/04/01 07:24:44;;;;;;;50.17;22.23;;;10.00;99.90;;;;;;4936203;29;20075;-91
2023/04/01 07:27:12;;;;;;;41.28;20.30;;;10.10;99.90;;;;;;4936767;29;20392;-91
2023/04/01 07:29:38;;;;;;;43.53;21.48;;;10.00;99.90;;;;;;4937021;29;20046;-91
2023/04/01 07:32:28;;;;;;;38.15;20.70;;;10.10;99.90;;;;;;4937691;29;20464;-91
2023/04/01 07:35:05;;;;;;;41.92;20.48;;;10.10;99.90;;;;;;4944283;29;20012;-91
2023/04/01 07:37:51;;;;;;;40.38;20.45;;;10.10;99.90;;;;;;4955511;29;20039;-92
2023/04/01 07:40:39;;;;;;;34.58;19.42;;;10.00;99.90;;;;;;4949431;29;20043;-92
2023/04/01 07:43:36;;;;;;;34.03;18.92;;;10.10;99.90;;;;;;4936220;29;20039;-90
2023/04/01 07:46:07;;;;;;;39.10;19.30;;;10.10;99.90;;;;;;4935650;29;20665;-90
2023/04/01 07:48:43;;;;;;;36.10;19.13;;;10.10;99.90;;;;;;4935074;29;20023;-88
2023/04/01 07:51:27;;;;;;;37.97;19.25;;;10.00;99.90;;;;;;4933261;29;20095;-90
2023/04/01 07:54:11;;;;;;;30.30;18.02;;;10.10;99.90;;;;;;4932558;29;20050;-87
2023/04/01 07:56:42;;;;;;;33.78;18.92;;;10.10;99.90;;;;;;4935670;29;20055;-92
2023/04/01 07:59:31;;;;;;;33.30;18.85;;;10.20;99.90;;;;;;4936230;29;20023;-89
2023/04/01 08:02:08;;;;;;;30.08;16.70;;;10.20;99.90;;;;;;4935690;29;20040;-90
2023/04/01 08:04:57;;;;;;;26.00;16.05;;;10.20;99.90;;;;;;4936093;29;20431;-90
2023/04/01 08:07:55;;;;;;;30.45;15.43;;;10.20;99.90;;;;;;4935486;29;20063;-92
2023/04/01 08:10:20;;;;;;;30.00;16.30;;;10.20;99.90;;;;;;4937194;29;20147;-89
2023/04/01 08:13:18;;;;;;;25.48;14.80;;;10.30;99.90;;;;;;4936550;29;20055;-92
2023/04/01 08:15:58;;;;;;;27.85;14.77;;;10.30;99.90;;;;;;4903479;29;20032;-90
2023/04/01 08:18:42;;;;;;;;;;;10.20;99.90;;;;;;4937248;29;20032;-92
2023/04/01 08:21:24;;;;;;;30.33;14.70;;;10.20;99.90;;;;;;4937087;29;19907;-89
2023/04/01 08:23:54;;;;;;;35.00;16.45;;;10.20;99.90;;;;;;4936827;29;20038;-92
2023/04/01 08:26:40;;;;;;;32.03;14.02;;;10.20;99.90;;;;;;4938901;29;20026;-93
2023/04/01 08:29:25;;;;;;;28.60;14.32;;;10.30;99.90;;;;;;4935810;29;20031;-94
2023/04/01 08:32:08;;;;;;;26.45;14.52;;;10.20;99.90;;;;;;4936297;29;20035;-95
2023/04/01 08:34:37;;;;;;;27.52;14.48;;;10.20;99.90;;;;;;4936999;29;20498;-94
2023/04/01 08:37:36;;;;;;;29.08;14.15;;;10.20;99.90;;;;;;4937528;29;20035;-93
2023/04/01 08:40:23;;;;;;;28.55;14.48;;;10.30;99.90;;;;;;4924817;29;20032;-93
2023/04/01 08:42:58;;;;;;;23.13;13.63;;;10.20;99.90;;;;;;4934480;29;20114;-88
2023/04/01 08:45:45;;;;;;;32.05;14.40;;;10.30;99.90;;;;;;4935254;29;20031;-91
2023/04/01 08:48:43;;;;;;;27.00;13.18;;;10.30;99.90;;;;;;4944849;29;20036;-91
2023/04/01 08:51:43;;;;;;;29.52;14.23;;;10.30;99.90;;;;;;4936125;29;20097;-93
2023/04/01 08:54:35;;;;;;;27.08;12.18;;;10.30;99.90;;;;;;4936102;29;20234;-93
2023/04/01 08:57:15;;;;;;;30.52;13.23;;;10.30;99.90;;;;;;4935053;29;20064;-94
2023/04/01 08:59:52;;;;;;;29.25;12.45;;;10.30;99.90;;;;;;4935233;29;20468;-92
2023/04/01 09:02:50;;;;;;;31.20;13.13;;;10.20;99.90;;;;;;4935195;29;20036;-92
2023/04/01 09:05:36;;;;;;;27.88;13.52;;;10.30;99.90;;;;;;4934737;29;20026;-92
2023/04/01 09:08:37;;;;;;;24.48;12.48;;;10.40;99.90;;;;;;4936017;29;20036;-92
2023/04/01 09:11:28;;;;;;;23.25;12.02;;;10.40;99.90;;;;;;4925990;29;20028;-90
2023/04/01 09:13:56;;;;;;;21.85;11.45;;;10.30;99.90;;;;;;4936156;29;20032;-92
2023/04/01 09:16:49;;;;;;;19.85;11.70;;;10.40;99.90;;;;;;4935936;29;20127;-89
2023/04/01 09:19:47;;;;;;;25.05;13.15;;;10.40;99.90;;;;;;4939685;29;20023;-93
2023/04/01 09:22:36;;;;;;;26.08;12.60;;;10.40;99.90;;;;;;4934860;29;20050;-95
2023/04/01 09:25:24;;;;;;;23.80;12.65;;;10.50;99.90;;;;;;4977885;28;20027;-94
2023/04/01 09:28:11;;;;;;;20.58;12.63;;;10.40;99.90;;;;;;4979595;28;20035;-96
2023/04/01 09:31:20;;;;;;;21.65;12.35;;;10.40;99.90;;;;;;4960779;29;20031;-93
2023/04/01 09:34:07;;;;;;;20.08;11.00;;;10.50;99.90;;;;;;4884230;29;20094;-93
2023/04/01 09:36:45;;;;;;;25.17;11.38;;;10.50;99.90;;;;;;4958571;29;20403;-95
2023/04/01 09:39:34;;;;;;;23.52;12.00;;;10.50;99.90;;;;;;4957050;29;20483;-93
2023/04/01 09:42:00;;;;;;;24.13;12.43;;;10.40;99.90;;;;;;4957899;29;20035;-92
2023/04/01 09:44:39;;;;;;;22.90;11.73;;;10.40;99.90;;;;;;4957515;29;20056;-87
2023/04/01 09:47:33;;;;;;;22.25;10.68;;;10.50;99.90;;;;;;4956093;29;20398;-89
2023/04/01 09:50:17;;;;;;;21.10;10.02;;;10.60;99.90;;;;;;4956257;29;20023;-88
2023/04/01 09:53:22;;;;;;;23.92;10.30;;;10.50;99.90;;;;;;4955671;29;20043;-90
2023/04/01 09:56:41;;;;;;;21.75;10.73;;;10.50;99.90;;;;;;4958047;29;20035;-92
2023/04/01 09:59:43;;;;;;;22.83;11.20;;;10.60;99.90;;;;;;4861658;29;20101;-88
2023/04/01 10:02:17;;;;;;;25.88;12.55;;;10.60;99.90;;;;;;4861359;29;20042;-91
2023/04/01 10:05:06;;;;;;;24.58;12.10;;;10.60;99.90;;;;;;4944365;29;20451;-90
2023/04/01 10:08:05;;;;;;;35.65;12.90;;;10.70;99.90;;;;;;4946065;29;20031;-89
2023/04/01 10:10:36;;;;;;;28.48;12.82;;;10.50;99.90;;;;;;4905840;29;20129;-91
2023/04/01 10:13:05;;;;;;;24.45;12.43;;;10.50;99.90;;;;;;4937587;29;20484;-91
2023/04/01 10:16:08;;;;;;;24.33;10.95;;;10.50;99.90;;;;;;4937678;29;20468;-92
2023/04/01 10:18:58;;;;;;;21.20;9.55;;;10.50;99.90;;;;;;4938265;29;20027;-91
2023/04/01 10:21:52;;;;;;;16.92;9.07;;;10.60;99.90;;;;;;4936622;29;20050;-90
2023/04/01 10:24:37;;;;;;;10.80;6.53;;;10.60;99.90;;;;;;4935408;29;20122;-88
2023/04/01 10:27:09;;;;;;;13.40;6.43;;;10.70;99.90;;;;;;4929906;29;20034;-90
2023/04/01 10:30:04;;;;;;;11.50;6.50;;;10.70;99.90;;;;;;4936256;29;20115;-90
2023/04/01 10:32:49;;;;;;;8.10;5.20;;;10.70;99.90;;;;;;4937927;29;20031;-89
2023/04/01 10:35:42;;;;;;;10.05;6.20;;;10.60;99.90;;;;;;4937729;29;20024;-90
2023/04/01 10:38:22;;;;;;;7.30;5.68;;;10.60;99.90;;;;;;4937329;29;20027;-89
2023/04/01 10:41:16;;;;;;;10.05;5.20;;;10.60;99.90;;;;;;4937420;29;20023;-89
2023/04/01 10:44:19;;;;;;;9.15;6.00;;;10.60;99.90;;;;;;4936364;29;20036;-88
2023/04/01 10:47:17;;;;;;;9.43;6.38;;;10.60;99.90;;;;;;4938336;29;20075;-88
2023/04/01 10:49:48;;;;;;;13.98;6.53;;;10.60;99.90;;;;;;4936598;29;20032;-89
2023/04/01 10:52:40;;;;;;;13.55;8.15;;;10.60;99.90;;;;;;4937272;29;20102;-86
2023/04/01 10:55:18;;;;;;;16.33;9.00;;;10.70;99.90;;;;;;4936949;29;20067;-89
2023/04/01 10:58:31;;;;;;;16.27;9.15;;;10.90;99.90;;;;;;4936507;29;20383;-90
2023/04/01 11:01:14;;;;;;;20.35;9.30;;;10.70;99.90;;;;;;4914721;29;20119;-90
2023/04/01 11:04:04;;;;;;;16.40;9.30;;;10.70;99.90;;;;;;4936072;29;20099;-91
2023/04/01 11:06:38;;;;;;;15.88;8.90;;;10.80;99.90;;;;;;5022696;23;20065;-90
2023/04/01 11:09:18;;;;;;;18.45;9.63;;;10.80;99.90;;;;;;4975091;28;20391;-91
2023/04/01 11:12:02;;;;;;;14.60;8.18;;;10.80;99.90;;;;;;4975467;28;20492;-90
2023/04/01 11:15:04;;;;;;;15.75;8.95;;;10.70;99.90;;;;;;4994747;28;20132;-90
2023/04/01 11:17:45;;;;;;;15.65;9.57;;;10.70;99.90;;;;;;4977349;28;20041;-89
2023/04/01 11:20:45;;;;;;;13.80;8.10;;;10.70;99.90;;;;;;4975865;28;20059;-90
2023/04/01 11:23:50;;;;;;;18.73;9.40;;;10.70;99.90;;;;;;4975982;28;20042;-95
2023/04/01 11:27:04;;;;;;;21.27;9.75;;;10.70;99.90;;;;;;4960682;28;20034;-94
2023/04/01 11:29:57;;;;;;;18.60;8.90;;;10.70;99.90;;;;;;4975988;28;20030;-92
2023/04/01 11:32:41;;;;;;;16.05;8.50;;;10.80;99.90;;;;;;4975162;28;20031;-91
2023/04/01 11:35:28;;;;;;;12.82;8.45;;;10.70;99.90;;;;;;4974952;28;20031;-91
2023/04/01 11:38:15;;;;;;;15.13;8.93;;;10.70;99.90;;;;;;4974348;28;20019;-92
2023/04/01 11:40:59;;;;;;;14.15;7.05;;;10.80;99.90;;;;;;4974114;28;20086;-92
2023/04/01 11:44:04;;;;;;;13.63;8.00;;;10.70;99.90;;;;;;4975120;28;20084;-92
2023/04/01 11:46:41;;;;;;;11.65;6.95;;;10.70;99.90;;;;;;4974290;28;20035;-91
2023/04/01 11:49:46;;;;;;;11.40;7.60;;;10.70;99.90;;;;;;4975389;28;20027;-91
2023/04/01 11:52:18;;;;;;;10.55;7.22;;;10.80;99.90;;;;;;4975432;28;20089;-92
2023/04/01 11:54:52;;;;;;;11.88;7.68;;;10.90;99.90;;;;;;4974548;28;20151;-92
2023/04/01 11:57:54;;;;;;;10.13;7.10;;;10.80;99.90;;;;;;4975817;28;20023;-91
2023/04/01 12:00:59;;;;;;;10.88;8.02;;;10.80;99.90;;;;;;4973643;28;20038;-91
2023/04/01 12:04:01;;;;;;;13.90;8.90;;;10.90;99.90;;;;;;4937713;28;20043;-91
2023/04/01 12:06:48;;;;;;;12.98;9.63;;;10.80;99.90;;;;;;4975989;28;20050;-92
2023/04/01 12:09:30;;;;;;;18.42;10.23;;;10.90;99.90;;;;;;4975290;28;20023;-91
2023/04/01 12:12:26;;;;;;;16.30;9.68;;;10.90;99.90;;;;;;4976276;28;20023;-92
2023/04/01 12:15:28;;;;;;;21.50;10.77;;;10.90;99.90;;;;;;4975617;28;20041;-91
2023/04/01 12:18:18;;;;;;;18.52;9.75;;;10.90;99.90;;;;;;4985534;28;20015;-91
2023/04/01 12:20:57;;;;;;;14.73;9.80;;;11.00;99.90;;;;;;4990973;28;20503;-91
2023/04/01 12:23:25;;;;;;;11.68;8.95;;;10.90;99.90;;;;;;4990947;28;20049;-91
2023/04/01 12:26:28;;;;;;;15.80;10.27;;;11.00;99.90;;;;;;4992725;28;20049;-92
2023/04/01 12:29:28;;;;;;;16.67;10.50;;;10.90;99.90;;;;;;4993547;28;20023;-92
2023/04/01 12:32:12;;;;;;;13.45;8.93;;;11.00;99.90;;;;;;4978821;28;20559;-92
2023/04/01 12:35:08;;;;;;;14.55;10.38;;;10.90;99.90;;;;;;4978436;28;20044;-92
2023/04/01 12:37:55;;;;;;;18.45;10.07;;;11.00;99.90;;;;;;4979704;28;20630;-93
2023/04/01 12:40:58;;;;;;;16.23;10.05;;;11.00;99.90;;;;;;4978764;28;20023;-92
2023/04/01 12:43:42;;;;;;;16.92;11.23;;;11.00;99.90;;;;;;4981304;28;20049;-93
2023/04/01 12:46:32;;;;;;;15.85;10.93;;;11.10;99.90;;;;;;4992128;28;20031;-95
2023/04/01 12:49:12;;;;;;;16.03;10.67;;;11.10;99.90;;;;;;4976805;28;20027;-93
2023/04/01 12:54:45;;;;;;;15.90;11.38;;;11.00;99.90;;;;;;4900045;29;20056;-92
2023/04/01 12:57:22;;;;;;;15.60;10.77;;;11.10;99.90;;;;;;4901165;29;20036;-92
2023/04/01 13:00:17;;;;;;;18.65;10.95;;;11.10;99.90;;;;;;4902123;29;20037;-91
2023/04/01 13:02:54;;;;;;;18.70;11.77;;;11.00;99.90;;;;;;4914224;29;20049;-90
2023/04/01 13:05:43;;;;;;;15.25;11.50;;;11.20;99.90;;;;;;4908701;29;20033;-92
2023/04/01 13:11:40;;;;;;;18.55;12.65;;;11.10;99.90;;;;;;5008542;23;20052;-91
2023/04/01 13:14:48;;;;;;;18.98;13.63;;;11.10;99.90;;;;;;4939233;29;20120;-90
2023/04/01 13:17:38;;;;;;;16.98;13.18;;;11.10;99.90;;;;;;4944626;29;20487;-94
2023/04/01 13:20:38;;;;;;;18.87;11.73;;;11.10;99.90;;;;;;4858248;29;20486;-91
2023/04/01 13:23:25;;;;;;;21.27;12.43;;;11.20;99.90;;;;;;4948230;29;20043;-91
2023/04/01 13:26:30;;;;;;;20.88;12.63;;;11.20;99.90;;;;;;4936372;29;20543;-91
2023/04/01 13:29:22;;;;;;;22.80;13.32;;;11.10;99.90;;;;;;4938639;29;20034;-90
2023/04/01 13:32:43;;;;;;;21.15;13.13;;;11.20;99.90;;;;;;4948096;29;20034;-90
2023/04/01 13:35:18;;;;;;;22.52;13.20;;;11.20;99.90;;;;;;4938222;29;20024;-91
2023/04/01 13:38:17;;;;;;;20.40;12.68;;;11.10;99.90;;;;;;4958688;29;20070;-94
2023/04/01 13:41:09;;;;;;;20.88;12.93;;;11.10;99.90;;;;;;4951620;29;20109;-90
2023/04/01 13:43:57;;;;;;;21.42;12.85;;;11.50;99.90;;;;;;4935653;29;20029;-91
2023/04/01 13:46:49;;;;;;;20.55;11.60;;;11.00;99.90;;;;;;4931901;29;20043;-92
2023/04/01 13:50:11;;;;;;;20.00;12.13;;;11.60;99.90;;;;;;4942052;29;20103;-92
2023/04/01 13:53:14;;;;;;;19.27;11.20;;;11.20;99.90;;;;;;4930141;29;20023;-90
2023/04/01 13:56:30;;;;;;;19.83;11.93;;;11.30;99.90;;;;;;4936625;29;20035;-92
2023/04/01 13:59:17;;;;;;;24.00;12.15;;;11.30;99.90;;;;;;4938063;29;20020;-89
2023/04/01 14:02:05;;;;;;;20.50;12.18;;;11.30;99.90;;;;;;4937402;29;20078;-89
2023/04/01 14:04:50;;;;;;;24.63;12.30;;;11.30;99.90;;;;;;4951066;28;20039;-91
2023/04/01 14:07:39;;;;;;;17.85;11.93;;;11.80;99.90;;;;;;4954825;29;20027;-90
2023/04/01 14:12:40;;;;;;;19.95;13.15;;;11.30;99.90;;;;;;4991787;23;20072;-89
2023/04/01 14:15:35;;;;;;;18.55;13.07;;;11.30;99.90;;;;;;4936207;29;20028;-91
2023/04/01 14:18:19;;;;;;;26.38;13.70;;;11.30;99.90;;;;;;4936700;29;20099;-90
2023/04/01 14:21:30;;;;;;;15.35;10.85;;;11.70;99.90;;;;;;4935972;29;20095;-90
2023/04/01 14:24:21;;;;;;;23.92;11.45;;;11.60;99.90;;;;;;4934068;29;20043;-91
2023/04/01 14:27:24;;;;;;;16.25;8.95;;;11.30;99.90;;;;;;4950270;29;20356;-91
2023/04/01 14:29:58;;;;;;;11.85;8.98;;;11.30;99.90;;;;;;4943196;29;20032;-89
2023/04/01 14:33:07;;;;;;;15.98;8.60;;;12.00;99.90;;;;;;4937199;29;20118;-90
2023/04/01 14:39:27;;;;;;;12.40;7.70;;;11.40;99.90;;;;;;4989301;23;20102;-92
2023/04/01 14:45:28;;;;;;;12.38;7.65;;;11.40;99.90;;;;;;4945276;23;20055;-91
2023/04/01 14:48:34;;;;;;;17.67;7.97;;;11.40;99.90;;;;;;4913069;29;20036;-91
2023/04/01 14:51:47;;;;;;;8.93;6.43;;;11.40;99.90;;;;;;4940594;29;20032;-91
2023/04/01 14:54:36;;;;;;;10.88;7.25;;;12.60;99.90;;;;;;4948703;29;20115;-90
2023/04/01 14:57:24;;;;;;;11.05;7.30;;;12.80;99.90;;;;;;4937568;29;20119;-90
2023/04/01 15:00:30;;;;;;;9.88;6.97;;;11.50;99.90;;;;;;4946762;29;20027;-91
2023/04/01 15:03:36;;;;;;;8.20;7.50;;;11.40;99.90;;;;;;4922518;29;20136;-90
2023/04/01 15:06:35;;;;;;;7.40;6.70;;;11.20;99.90;;;;;;4937299;29;20055;-92
2023/04/01 15:09:21;;;;;;;6.97;6.35;;;11.40;99.90;;;;;;4937858;29;20099;-92
2023/04/01 15:12:19;;;;;;;7.90;7.20;;;11.50;99.90;;;;;;4946611;29;20031;-92
2023/04/01 15:15:13;;;;;;;7.07;6.47;;;11.50;99.90;;;;;;4951888;28;20030;-92
2023/04/01 15:18:08;;;;;;;8.15;7.43;;;11.50;99.90;;;;;;4949879;29;20035;-90
2023/04/01 15:21:06;;;;;;;7.43;6.80;;;11.40;99.90;;;;;;4937176;29;20053;-89
2023/04/01 15:23:48;;;;;;;8.55;7.68;;;11.40;99.90;;;;;;4935485;29;20031;-90
2023/04/01 15:26:47;;;;;;;7.85;7.15;;;11.30;99.90;;;;;;4950612;29;20478;-90